Overview Statistics Trail Chart Weather Telemetry Raw packets
 

This is the latest recevied weather packets stored in our database for station/object KI4KWR-1. If no packets are shown the sender has not sent any weather packets the latest 10 day(s).

<< 4 5 6 7 8 9 10 >>
Time Temp. Humidity Pressure Rain* Wind** Luminosity Snow
1788493503 25° C 85% 987.3 hPa 0 mm - - -
1788492604 25° C 84% 987.4 hPa 0 mm - - -
1788491704 25.56° C 83% 987.4 hPa 0 mm - - -
1788490803 25.56° C 83% 987.4 hPa 0 mm - - -
1788489904 25.56° C 83% 987.2 hPa 0 mm - - -
1788489004 25.56° C 82% 987.3 hPa 0 mm - - -
1788488104 25.56° C 84% 987.2 hPa 0 mm - - -
1788487204 26.11° C 82% 986.9 hPa 0 mm - - -
1788486304 26.67° C 78% 986.6 hPa 0 mm - - -
1788485403 26.67° C 76% 986.6 hPa 0 mm - - -
1788484503 27.22° C 77% 986.5 hPa 0 mm - - -
1788483604 27.78° C 75% 986.2 hPa 0 mm - - -
1788482704 28.33° C 72% 986.3 hPa 0 mm - - -
1788481804 28.89° C 71% 986.2 hPa 0 mm - - -
1788480904 29.44° C 70% 986.1 hPa 0 mm - - -
1788480003 31.11° C 63% 986 hPa 0 mm - - -
1788479105 32.22° C 60% 986 hPa 0 mm - - -
1788478203 31.67° C 60% 986.1 hPa 0 mm - - -
1788477303 32.22° C 59% 986 hPa 0 mm - - -
1788476403 32.22° C 59% 985.9 hPa 0 mm - - -
1788475504 32.78° C 58% 986 hPa 0 mm - - -
1788474604 32.78° C 56% 985.9 hPa 0 mm - - -
1788473704 32.78° C 57% 985.6 hPa 0 mm - - -
1788472804 33.33° C 52% 985.6 hPa 0 mm - - -
1788471904 34.44° C 49% 985.6 hPa 0 mm - - -

* Rain latest hour (hover to see other rain measurements)
** Current wind speed in m/s (hover to see current wind gust speed)